Piracaia, Brazil
Current Conditions -  °F | °C
As of 2:00 AM on Sunday 26 Oct 2014 (Local Time) from SBGR Reporting Station
Haze Haze  
Wind Chill: 66°   Ceiling: Unl
Heat Index: 66°   Visibility: 3mi
Dew Point: 64°   Wind: 5mph
Humidity: 94%   Direction: 80°E
Pressure: 30"   Gusts: NA
Location:  23.05°S, 46.36°W
Report Text: SBGR 260400Z 08004KT 5000 BR SCT009 SCT100 19/18 Q1016
Loading
Personal Weather Stations






























Interactive Weather Map
Tropical Storm Tracking
New forecast layout! Learn more

10-Day Weather Forecast

Advertisements
Track Severe Weather on mobile